createdAt,value
2023-05-02T00:00:47.568Z,101047.63
2023-05-02T00:03:14.186Z,101058.72
2023-05-02T00:05:41.033Z,101058.34
2023-05-02T00:08:07.527Z,101062.56
2023-05-02T00:10:34.210Z,101060.94
2023-05-02T00:13:00.586Z,101062.53
2023-05-02T00:15:27.509Z,101065.03
2023-05-02T00:17:53.930Z,101063.44
2023-05-02T00:20:20.390Z,101067.34
2023-05-02T00:22:46.768Z,101073.13
2023-05-02T00:25:17.131Z,101077.16
2023-05-02T00:27:46.406Z,101081.06
2023-05-02T00:30:13.567Z,101084.41
2023-05-02T00:32:40.383Z,101090.75
2023-05-02T00:35:07.238Z,101090.56
2023-05-02T00:37:33.639Z,101096.25
2023-05-02T00:40:00.270Z,101097.03
2023-05-02T00:42:29.199Z,101095.16
2023-05-02T00:44:55.563Z,101096.75
2023-05-02T00:47:22.258Z,101105.09
2023-05-02T00:49:50.005Z,101110.72
2023-05-02T00:52:16.400Z,101104.59
2023-05-02T00:54:43.710Z,101102.38
2023-05-02T00:57:10.652Z,101094.25
2023-05-02T00:59:37.473Z,101100.19
2023-05-02T01:02:03.891Z,101100.72
2023-05-02T01:04:58.951Z,101094.72
2023-05-02T01:07:51.362Z,101102.63
2023-05-02T01:10:20.886Z,101093.06
2023-05-02T01:12:52.254Z,101098.84
2023-05-02T01:15:20.855Z,101103.72
2023-05-02T01:17:49.578Z,101102.34
2023-05-02T01:20:20.110Z,101110.28
2023-05-02T01:22:47.847Z,101117.44
2023-05-02T01:25:17.262Z,101124.50
2023-05-02T01:27:55.999Z,101124.22
2023-05-02T01:30:23.162Z,101125.88
2023-05-02T01:32:51.619Z,101121.16
2023-05-02T01:35:18.612Z,101122.06
2023-05-02T01:37:45.809Z,101123.13
2023-05-02T01:40:14.456Z,101126.31
2023-05-02T01:42:42.496Z,101132.28
2023-05-02T01:45:09.748Z,101132.94
2023-05-02T01:47:36.929Z,101130.66
2023-05-02T01:50:08.785Z,101139.84
2023-05-02T01:52:35.515Z,101131.13
2023-05-02T01:55:03.862Z,101133.59
2023-05-02T01:57:30.504Z,101143.59
2023-05-02T01:59:57.408Z,101159.00
2023-05-02T02:02:28.151Z,101155.09
2023-05-02T02:04:57.721Z,101162.31
2023-05-02T02:07:24.178Z,101163.84
2023-05-02T02:09:50.683Z,101166.84
2023-05-02T02:12:35.823Z,101176.59
2023-05-02T02:15:10.315Z,101180.06
2023-05-02T02:17:43.213Z,101181.38
2023-05-02T02:20:10.685Z,101191.78
2023-05-02T02:22:39.434Z,101186.31
2023-05-02T02:25:08.773Z,101183.31
2023-05-02T02:27:36.276Z,101198.09
2023-05-02T02:30:03.640Z,101196.50
2023-05-02T02:32:30.045Z,101194.72
2023-05-02T02:34:56.413Z,101195.31
2023-05-02T02:37:33.552Z,101197.88
2023-05-02T02:40:18.563Z,101198.78
2023-05-02T02:42:51.925Z,101192.94
2023-05-02T02:46:12.619Z,101199.44
2023-05-02T02:49:11.013Z,101199.28
2023-05-02T02:51:58.773Z,101189.38
2023-05-02T02:54:40.099Z,101186.44
2023-05-02T02:57:15.000Z,101196.25
2023-05-02T03:00:05.813Z,101198.13
2023-05-02T03:02:32.895Z,101194.69
2023-05-02T03:05:00.365Z,101202.09
2023-05-02T03:07:30.466Z,101198.50
2023-05-02T03:09:57.011Z,101202.78
2023-05-02T03:12:23.491Z,101202.75
2023-05-02T03:14:50.227Z,101201.47
2023-05-02T03:17:16.634Z,101202.34
2023-05-02T03:19:43.086Z,101209.53
2023-05-02T03:22:09.542Z,101212.03
2023-05-02T03:24:35.931Z,101214.06
2023-05-02T03:27:02.903Z,101207.94
2023-05-02T03:29:29.306Z,101224.34
2023-05-02T03:31:55.830Z,101205.44
2023-05-02T03:34:22.305Z,101214.50
2023-05-02T03:36:49.038Z,101216.91
2023-05-02T03:39:15.516Z,101207.41
2023-05-02T03:41:43.680Z,101214.59
2023-05-02T03:44:10.053Z,101222.41
2023-05-02T03:46:36.702Z,101227.41
2023-05-02T03:49:03.122Z,101231.75
2023-05-02T03:51:29.485Z,101234.72
2023-05-02T03:53:55.864Z,101230.31
2023-05-02T03:56:22.289Z,101238.38
2023-05-02T03:58:49.011Z,101238.50
2023-05-02T04:01:16.363Z,101237.75
2023-05-02T04:03:43.161Z,101244.31
2023-05-02T04:06:09.746Z,101247.63
2023-05-02T04:08:36.898Z,101250.09
2023-05-02T04:11:03.281Z,101249.41
2023-05-02T04:13:29.697Z,101249.94
2023-05-02T04:15:56.354Z,101262.03
2023-05-02T04:18:22.721Z,101255.44
2023-05-02T04:20:50.122Z,101264.47
2023-05-02T04:23:17.578Z,101262.56
2023-05-02T04:25:53.977Z,101268.34
2023-05-02T04:28:21.841Z,101266.63
2023-05-02T04:30:51.722Z,101273.91
2023-05-02T04:33:18.633Z,101278.13
2023-05-02T04:35:45.100Z,101278.13
2023-05-02T04:38:11.486Z,101279.47
2023-05-02T04:40:37.969Z,101285.09
2023-05-02T04:43:04.817Z,101289.00
2023-05-02T04:45:31.214Z,101292.78
2023-05-02T04:47:57.719Z,101299.66
2023-05-02T04:50:24.132Z,101304.03
2023-05-02T04:52:50.541Z,101305.31
2023-05-02T04:55:17.114Z,101304.28
2023-05-02T04:57:43.513Z,101313.88
2023-05-02T05:00:10.357Z,101316.56
2023-05-02T05:02:36.927Z,101322.69
2023-05-02T05:05:04.449Z,101332.72
2023-05-02T05:07:31.009Z,101332.84
2023-05-02T05:09:57.524Z,101342.94
2023-05-02T05:12:24.123Z,101343.97
2023-05-02T05:14:50.589Z,101348.78
2023-05-02T05:17:17.131Z,101352.91
2023-05-02T05:19:43.613Z,101361.31
2023-05-02T05:22:10.091Z,101360.03
2023-05-02T05:24:36.490Z,101362.75
2023-05-02T05:27:03.041Z,101377.88
2023-05-02T05:29:31.591Z,101375.97
2023-05-02T05:31:58.034Z,101392.06
2023-05-02T05:34:25.072Z,101399.28
2023-05-02T05:36:51.853Z,101399.56
2023-05-02T05:39:18.230Z,101405.38
2023-05-02T05:41:44.614Z,101416.38
2023-05-02T05:44:11.008Z,101413.78
2023-05-02T05:46:37.902Z,101413.78
2023-05-02T05:49:04.318Z,101415.88
2023-05-02T05:51:31.523Z,101412.13
2023-05-02T05:53:57.895Z,101408.31
2023-05-02T05:56:24.353Z,101414.88
2023-05-02T05:58:50.842Z,101412.97
2023-05-02T06:01:17.222Z,101410.91
2023-05-02T06:03:43.744Z,101409.44
2023-05-02T06:06:10.490Z,101418.88
2023-05-02T06:08:37.011Z,101421.13
2023-05-02T06:11:03.618Z,101417.50
2023-05-02T06:13:30.011Z,101423.19
2023-05-02T06:16:01.031Z,101416.69
2023-05-02T06:18:27.478Z,101425.78
2023-05-02T06:20:53.838Z,101430.06
2023-05-02T06:23:20.328Z,101434.59
2023-05-02T06:25:46.720Z,101434.72
2023-05-02T06:28:13.137Z,101437.06
2023-05-02T06:30:39.673Z,101445.84
2023-05-02T06:33:06.234Z,101445.47
2023-05-02T06:35:32.662Z,101443.66
2023-05-02T06:37:59.065Z,101448.31
2023-05-02T06:40:25.609Z,101454.28
2023-05-02T06:42:52.017Z,101448.44
2023-05-02T06:45:18.440Z,101452.00
2023-05-02T06:47:45.092Z,101463.09
2023-05-02T06:50:11.506Z,101470.97
2023-05-02T06:52:37.928Z,101478.88
2023-05-02T06:55:05.437Z,101479.13
2023-05-02T06:57:31.931Z,101480.44
2023-05-02T06:59:58.828Z,101486.41
2023-05-02T07:02:25.498Z,101487.94
2023-05-02T07:04:51.911Z,101489.75
2023-05-02T07:07:20.444Z,101485.88
2023-05-02T07:09:46.882Z,101490.13
2023-05-02T07:12:13.303Z,101495.44
2023-05-02T07:14:39.765Z,101495.44
2023-05-02T07:17:06.368Z,101496.72
2023-05-02T07:19:33.236Z,101510.44
2023-05-02T07:21:59.675Z,101519.75
2023-05-02T07:24:26.327Z,101516.81
2023-05-02T07:26:52.733Z,101522.38
2023-05-02T07:29:19.102Z,101526.56
2023-05-02T07:31:45.594Z,101531.88
2023-05-02T07:34:12.195Z,101548.00
2023-05-02T07:36:39.008Z,101562.19
2023-05-02T07:39:05.400Z,101566.78
2023-05-02T07:41:31.833Z,101583.03
2023-05-02T07:43:58.244Z,101586.38
2023-05-02T07:46:24.732Z,101590.13
2023-05-02T07:48:51.213Z,101604.25
2023-05-02T07:51:20.243Z,101619.22
2023-05-02T07:53:46.767Z,101616.34
2023-05-02T07:56:13.412Z,101633.19
2023-05-02T07:58:39.802Z,101638.06
2023-05-02T08:01:06.243Z,101642.94
2023-05-02T08:03:32.735Z,101646.72
2023-05-02T08:05:59.275Z,101650.81
2023-05-02T08:08:25.714Z,101651.41
2023-05-02T08:10:52.089Z,101651.88
2023-05-02T08:13:18.567Z,101652.88
2023-05-02T08:15:45.104Z,101654.28
2023-05-02T08:18:11.931Z,101655.94
2023-05-02T08:20:38.341Z,101652.88
2023-05-02T08:23:04.821Z,101660.31
2023-05-02T08:25:31.236Z,101672.28
2023-05-02T08:27:57.617Z,101673.56
2023-05-02T08:30:24.455Z,101667.19
2023-05-02T08:32:50.873Z,101671.06
2023-05-02T08:35:17.532Z,101666.13
2023-05-02T08:37:43.949Z,101670.94
2023-05-02T08:40:12.440Z,101669.59
2023-05-02T08:42:42.088Z,101676.69
2023-05-02T08:45:08.940Z,101683.16
2023-05-02T08:47:36.551Z,101675.31
2023-05-02T08:50:05.743Z,101684.53
2023-05-02T08:52:32.734Z,101690.50
2023-05-02T08:55:01.819Z,101687.06
2023-05-02T08:57:32.159Z,101682.41
2023-05-02T08:59:59.081Z,101694.03
2023-05-02T09:02:34.252Z,101703.84
2023-05-02T09:05:06.685Z,101711.09
2023-05-02T09:07:49.762Z,101715.69
2023-05-02T09:10:16.203Z,101718.97
2023-05-02T09:12:42.716Z,101723.38
2023-05-02T09:15:10.000Z,101723.47
2023-05-02T09:17:44.208Z,101721.41
2023-05-02T09:20:11.823Z,101720.41
2023-05-02T09:22:38.957Z,101723.38
2023-05-02T09:25:08.721Z,101721.66
2023-05-02T09:27:51.889Z,101717.41
2023-05-02T09:30:20.094Z,101730.41
2023-05-02T09:32:47.338Z,101718.59
2023-05-02T09:35:19.254Z,101727.53
2023-05-02T09:37:45.682Z,101738.75
2023-05-02T09:40:12.617Z,101741.00
2023-05-02T09:42:39.117Z,101741.00
2023-05-02T09:45:05.973Z,101749.19
2023-05-02T09:47:32.443Z,101741.69
2023-05-02T09:49:58.845Z,101755.06
2023-05-02T09:52:25.353Z,101756.69
2023-05-02T09:54:52.722Z,101757.00
2023-05-02T09:57:19.731Z,101759.59
2023-05-02T09:59:56.176Z,101762.13
2023-05-02T10:02:23.398Z,101767.16
2023-05-02T10:04:49.997Z,101769.53
2023-05-02T10:07:17.191Z,101774.63
2023-05-02T10:09:45.029Z,101775.50
2023-05-02T10:12:14.980Z,101775.25
2023-05-02T10:14:51.538Z,101783.84
2023-05-02T10:17:25.393Z,101784.84
2023-05-02T10:20:04.310Z,101788.94
2023-05-02T10:22:31.574Z,101783.09
2023-05-02T10:24:59.924Z,101782.59
2023-05-02T10:27:26.684Z,101788.81
2023-05-02T10:29:54.437Z,101788.28
2023-05-02T10:32:22.270Z,101782.47
2023-05-02T10:34:48.865Z,101784.94
2023-05-02T10:37:15.836Z,101783.94
2023-05-02T10:39:42.239Z,101787.16
2023-05-02T10:42:09.018Z,101776.09
2023-05-02T10:44:37.008Z,101788.22
2023-05-02T10:47:26.897Z,101787.28
2023-05-02T10:49:59.554Z,101789.66
2023-05-02T10:52:31.761Z,101785.88
2023-05-02T10:55:17.846Z,101787.16
2023-05-02T10:58:06.479Z,101790.09
2023-05-02T11:00:33.848Z,101792.41
2023-05-02T11:03:01.516Z,101794.47
2023-05-02T11:05:28.411Z,101788.78
2023-05-02T11:08:22.299Z,101791.22
2023-05-02T11:10:49.711Z,101790.31
2023-05-02T11:13:16.086Z,101788.78
2023-05-02T11:15:42.393Z,101782.13
2023-05-02T11:18:13.308Z,101787.66
2023-05-02T11:20:41.398Z,101789.31
2023-05-02T11:23:13.757Z,101795.78
2023-05-02T11:25:43.398Z,101789.41
2023-05-02T11:28:41.297Z,101789.50
2023-05-02T11:31:10.162Z,101781.34
2023-05-02T11:33:36.858Z,101793.09
2023-05-02T11:36:03.479Z,101780.38
2023-05-02T11:38:39.345Z,101789.53
2023-05-02T11:41:05.920Z,101781.91
2023-05-02T11:43:32.895Z,101787.25
2023-05-02T11:46:00.285Z,101789.91
2023-05-02T11:48:27.413Z,101794.69
2023-05-02T11:50:57.249Z,101791.41
2023-05-02T11:53:25.621Z,101793.63
2023-05-02T11:55:56.503Z,101790.75
2023-05-02T11:58:24.605Z,101797.91
2023-05-02T12:00:52.550Z,101787.31
2023-05-02T12:03:29.519Z,101796.31
2023-05-02T12:05:57.361Z,101784.56
2023-05-02T12:08:26.318Z,101804.38
2023-05-02T12:10:56.754Z,101809.06
2023-05-02T12:13:25.033Z,101812.47
2023-05-02T12:15:52.178Z,101807.59
2023-05-02T12:18:21.516Z,101809.31
2023-05-02T12:20:48.602Z,101817.75
2023-05-02T12:23:15.193Z,101817.72
2023-05-02T12:25:42.505Z,101803.31
2023-05-02T12:28:10.258Z,101794.28
2023-05-02T12:30:38.555Z,101794.25
2023-05-02T12:33:06.429Z,101804.56
2023-05-02T12:35:33.773Z,101801.91
2023-05-02T12:38:16.659Z,101808.56
2023-05-02T12:40:48.888Z,101812.25
2023-05-02T12:43:15.597Z,101819.25
2023-05-02T12:45:42.091Z,101815.09
2023-05-02T12:48:18.625Z,101807.69
2023-05-02T12:50:45.012Z,101821.47
2023-05-02T12:53:11.405Z,101832.28
2023-05-02T12:55:37.873Z,101828.69
2023-05-02T12:58:08.714Z,101824.94
2023-05-02T13:00:38.877Z,101821.78
2023-05-02T13:03:06.265Z,101832.75
2023-05-02T13:05:32.824Z,101841.50
2023-05-02T13:07:59.385Z,101830.25
2023-05-02T13:10:26.699Z,101821.81
2023-05-02T13:12:53.367Z,101831.56
2023-05-02T13:15:20.008Z,101831.75
2023-05-02T13:17:46.663Z,101833.22
2023-05-02T13:20:13.310Z,101828.63
2023-05-02T13:22:39.981Z,101820.72
2023-05-02T13:25:07.739Z,101807.69
2023-05-02T13:27:34.418Z,101811.75
2023-05-02T13:30:02.725Z,101834.50
2023-05-02T13:32:31.336Z,101830.75
2023-05-02T13:34:57.819Z,101837.69
2023-05-02T13:37:24.292Z,101837.09
2023-05-02T13:39:50.668Z,101833.75
2023-05-02T13:42:17.115Z,101835.91
2023-05-02T13:44:43.508Z,101842.22
2023-05-02T13:47:09.891Z,101838.91
2023-05-02T13:49:36.274Z,101844.53
2023-05-02T13:52:02.681Z,101853.22
2023-05-02T13:54:29.052Z,101850.84
2023-05-02T13:56:55.778Z,101845.00
2023-05-02T13:59:22.328Z,101839.41
2023-05-02T14:01:49.276Z,101844.75
2023-05-02T14:04:15.866Z,101846.19
2023-05-02T14:06:42.421Z,101844.94
2023-05-02T14:09:08.848Z,101835.28
2023-05-02T14:11:35.388Z,101848.06
2023-05-02T14:14:01.763Z,101833.31
2023-05-02T14:16:28.360Z,101838.56
2023-05-02T14:18:54.779Z,101824.88
2023-05-02T14:21:21.211Z,101833.63
2023-05-02T14:23:47.619Z,101825.38
2023-05-02T14:26:15.212Z,101824.38
2023-05-02T14:28:41.826Z,101827.69
2023-05-02T14:31:08.269Z,101824.13
2023-05-02T14:33:34.656Z,101835.50
2023-05-02T14:36:01.303Z,101850.75
2023-05-02T14:38:27.719Z,101850.63
2023-05-02T14:40:54.945Z,101847.75
2023-05-02T14:43:21.484Z,101853.47
2023-05-02T14:45:47.986Z,101838.34
2023-05-02T14:48:16.770Z,101834.34
2023-05-02T14:50:43.950Z,101845.59
2023-05-02T14:53:10.426Z,101841.91
2023-05-02T14:55:38.703Z,101839.06
2023-05-02T14:58:07.707Z,101829.13
2023-05-02T15:00:37.540Z,101826.75
2023-05-02T15:03:10.956Z,101830.16
2023-05-02T15:05:37.432Z,101821.91
2023-05-02T15:08:03.928Z,101828.28
2023-05-02T15:10:30.403Z,101843.44
2023-05-02T15:12:56.842Z,101846.66
2023-05-02T15:15:25.068Z,101846.31
2023-05-02T15:17:52.802Z,101845.41
2023-05-02T15:20:19.743Z,101849.44
2023-05-02T15:22:46.194Z,101845.47
2023-05-02T15:25:12.596Z,101822.78
2023-05-02T15:27:39.183Z,101830.28
2023-05-02T15:30:08.979Z,101829.66
2023-05-02T15:32:35.635Z,101841.28
2023-05-02T15:35:02.356Z,101837.41
2023-05-02T15:37:28.739Z,101843.69
2023-05-02T15:39:55.425Z,101849.94
2023-05-02T15:42:21.832Z,101841.75
2023-05-02T15:44:48.242Z,101835.03
2023-05-02T15:47:14.740Z,101839.59
2023-05-02T15:49:41.643Z,101834.88
2023-05-02T15:52:08.051Z,101847.72
2023-05-02T15:54:34.466Z,101852.34
2023-05-02T15:57:02.399Z,101857.47
2023-05-02T15:59:28.860Z,101854.44
2023-05-02T16:01:55.686Z,101860.63
2023-05-02T16:04:22.313Z,101861.69
2023-05-02T16:06:48.793Z,101857.94
2023-05-02T16:09:15.382Z,101853.59
2023-05-02T16:11:41.910Z,101852.31
2023-05-02T16:14:08.285Z,101853.19
2023-05-02T16:16:34.774Z,101855.34
2023-05-02T16:19:01.182Z,101853.69
2023-05-02T16:21:27.706Z,101850.69
2023-05-02T16:23:54.097Z,101844.78
2023-05-02T16:26:20.847Z,101851.81
2023-05-02T16:28:47.307Z,101852.81
2023-05-02T16:31:14.866Z,101855.97
2023-05-02T16:33:42.729Z,101859.94
2023-05-02T16:36:09.682Z,101862.03
2023-05-02T16:38:36.554Z,101854.59
2023-05-02T16:41:04.465Z,101836.59
2023-05-02T16:43:30.850Z,101847.28
2023-05-02T16:46:05.891Z,101854.75
2023-05-02T16:48:33.271Z,101852.97
2023-05-02T16:51:01.691Z,101856.25
2023-05-02T16:53:30.853Z,101868.31
2023-05-02T16:55:59.321Z,101866.28
2023-05-02T16:58:27.448Z,101867.19
2023-05-02T17:00:53.951Z,101872.75
2023-05-02T17:03:20.735Z,101883.78
2023-05-02T17:05:47.189Z,101884.41
2023-05-02T17:08:13.764Z,101881.59
2023-05-02T17:10:40.159Z,101885.00
2023-05-02T17:13:06.908Z,101883.41
2023-05-02T17:15:38.376Z,101897.59
2023-05-02T17:18:05.094Z,101893.38
2023-05-02T17:20:32.254Z,101899.63
2023-05-02T17:23:00.317Z,101907.50
2023-05-02T17:25:26.791Z,101905.06
2023-05-02T17:27:53.184Z,101901.03
2023-05-02T17:30:19.644Z,101901.47
2023-05-02T17:32:46.493Z,101889.81
2023-05-02T17:35:14.073Z,101898.97
2023-05-02T17:37:40.837Z,101904.13
2023-05-02T17:40:07.781Z,101903.69
2023-05-02T17:42:34.226Z,101896.94
2023-05-02T17:45:00.624Z,101902.31
2023-05-02T17:47:27.020Z,101900.84
2023-05-02T17:49:53.780Z,101909.19
2023-05-02T17:52:20.230Z,101913.84
2023-05-02T17:54:46.656Z,101905.84
2023-05-02T17:57:14.443Z,101909.47
2023-05-02T17:59:41.475Z,101897.72
2023-05-02T18:02:10.106Z,101919.28
2023-05-02T18:04:37.243Z,101914.25
2023-05-02T18:07:05.675Z,101916.47
2023-05-02T18:09:32.641Z,101920.59
2023-05-02T18:12:00.456Z,101926.91
2023-05-02T18:14:26.865Z,101928.81
2023-05-02T18:16:53.255Z,101932.34
2023-05-02T18:19:19.653Z,101931.31
2023-05-02T18:21:46.196Z,101933.63
2023-05-02T18:24:12.836Z,101941.16
2023-05-02T18:26:39.276Z,101931.78
2023-05-02T18:29:05.656Z,101934.63
2023-05-02T18:31:32.268Z,101937.09
2023-05-02T18:33:58.812Z,101936.09
2023-05-02T18:36:26.995Z,101937.25
2023-05-02T18:38:56.392Z,101938.81
2023-05-02T18:41:22.887Z,101947.91
2023-05-02T18:43:49.392Z,101936.13
2023-05-02T18:46:15.872Z,101945.22
2023-05-02T18:48:42.478Z,101951.13
2023-05-02T18:51:09.461Z,101950.53
2023-05-02T18:53:36.041Z,101955.50
2023-05-02T18:56:02.619Z,101959.50
2023-05-02T18:58:29.000Z,101959.75
2023-05-02T19:00:55.419Z,101959.75
2023-05-02T19:03:22.089Z,101963.25
2023-05-02T19:05:50.500Z,101979.34
2023-05-02T19:08:16.988Z,101977.13
2023-05-02T19:10:43.616Z,101976.31
2023-05-02T19:13:10.037Z,101981.06
2023-05-02T19:15:36.771Z,101998.34
2023-05-02T19:18:03.707Z,101990.25
2023-05-02T19:20:30.373Z,101988.38
2023-05-02T19:23:14.606Z,101989.34
2023-05-02T19:25:44.351Z,101992.25
2023-05-02T19:28:12.342Z,101989.00
2023-05-02T19:30:42.459Z,101991.50
2023-05-02T19:33:09.069Z,101992.84
2023-05-02T19:35:36.415Z,101989.47
2023-05-02T19:38:03.064Z,101999.28
2023-05-02T19:40:29.499Z,102001.28
2023-05-02T19:42:55.915Z,102008.06
2023-05-02T19:45:22.321Z,102014.41
2023-05-02T19:47:48.853Z,102016.84
2023-05-02T19:50:15.418Z,102022.81
2023-05-02T19:52:42.848Z,102032.25
2023-05-02T19:55:09.387Z,102032.91
2023-05-02T19:57:36.015Z,102028.31
2023-05-02T20:00:02.851Z,102035.03
2023-05-02T20:02:29.616Z,102034.41
2023-05-02T20:04:56.111Z,102033.81
2023-05-02T20:07:22.513Z,102035.13
2023-05-02T20:09:48.922Z,102033.94
2023-05-02T20:12:15.309Z,102030.91
2023-05-02T20:14:41.863Z,102031.63
2023-05-02T20:17:08.446Z,102041.03
2023-05-02T20:19:35.212Z,102040.13
2023-05-02T20:22:01.658Z,102049.13
2023-05-02T20:24:28.092Z,102043.81
2023-05-02T20:26:54.493Z,102043.50
2023-05-02T20:29:20.888Z,102052.03
2023-05-02T20:31:47.284Z,102051.56
2023-05-02T20:34:13.720Z,102058.44
2023-05-02T20:36:40.156Z,102054.66
2023-05-02T20:39:09.136Z,102056.16
2023-05-02T20:41:36.601Z,102056.28
2023-05-02T20:44:03.671Z,102064.84
2023-05-02T20:46:30.979Z,102068.28
2023-05-02T20:48:59.277Z,102062.38
2023-05-02T20:51:29.585Z,102069.34
2023-05-02T20:53:56.151Z,102069.03
2023-05-02T20:56:23.055Z,102062.31
2023-05-02T20:58:49.468Z,102063.44
2023-05-02T21:01:15.913Z,102068.75
2023-05-02T21:03:42.374Z,102071.59
2023-05-02T21:06:08.825Z,102071.06
2023-05-02T21:08:35.396Z,102071.97
2023-05-02T21:11:01.792Z,102072.63
2023-05-02T21:13:28.328Z,102068.41
2023-05-02T21:15:54.750Z,102071.97
2023-05-02T21:18:21.139Z,102075.13
2023-05-02T21:20:48.770Z,102074.19
2023-05-02T21:23:15.402Z,102080.72
2023-05-02T21:25:41.789Z,102073.66
2023-05-02T21:28:08.166Z,102072.69
2023-05-02T21:30:35.045Z,102077.25
2023-05-02T21:33:01.514Z,102082.25
2023-05-02T21:35:28.707Z,102068.50
2023-05-02T21:37:55.139Z,102073.50
2023-05-02T21:40:21.519Z,102073.41
2023-05-02T21:42:47.940Z,102075.59
2023-05-02T21:45:14.414Z,102084.63
2023-05-02T21:47:41.013Z,102080.63
2023-05-02T21:50:07.750Z,102083.75
2023-05-02T21:52:34.578Z,102088.09
2023-05-02T21:55:01.101Z,102085.00
2023-05-02T21:57:27.491Z,102080.50
2023-05-02T21:59:53.911Z,102084.09
2023-05-02T22:02:20.408Z,102092.34
2023-05-02T22:04:48.112Z,102093.66
2023-05-02T22:07:15.889Z,102097.00
2023-05-02T22:09:42.509Z,102099.34
2023-05-02T22:12:09.183Z,102101.81
2023-05-02T22:14:44.466Z,102096.75
2023-05-02T22:17:12.071Z,102088.38
2023-05-02T22:19:39.170Z,102085.63
2023-05-02T22:22:05.655Z,102086.44
2023-05-02T22:24:32.046Z,102097.00
2023-05-02T22:26:58.438Z,102101.72
2023-05-02T22:29:25.878Z,102099.41
2023-05-02T22:31:52.375Z,102095.25
2023-05-02T22:34:19.096Z,102101.41
2023-05-02T22:36:45.863Z,102103.34
2023-05-02T22:39:12.747Z,102104.72
2023-05-02T22:41:39.137Z,102104.31
2023-05-02T22:44:05.575Z,102111.28
2023-05-02T22:46:31.986Z,102114.66
2023-05-02T22:48:58.695Z,102112.25
2023-05-02T22:51:28.073Z,102114.16
2023-05-02T22:53:55.308Z,102113.88
2023-05-02T22:56:21.930Z,102113.28
2023-05-02T22:58:49.819Z,102113.28
2023-05-02T23:01:16.351Z,102112.44
2023-05-02T23:03:43.211Z,102112.34
2023-05-02T23:06:09.867Z,102114.13
2023-05-02T23:08:36.295Z,102113.25
2023-05-02T23:11:02.748Z,102113.41
2023-05-02T23:13:29.174Z,102118.69
2023-05-02T23:15:55.819Z,102119.00
2023-05-02T23:18:22.671Z,102116.84
2023-05-02T23:20:49.105Z,102120.16
2023-05-02T23:23:15.537Z,102112.75
2023-05-02T23:25:41.940Z,102115.72
2023-05-02T23:28:08.419Z,102117.56
2023-05-02T23:30:34.921Z,102115.38
2023-05-02T23:33:01.531Z,102111.38
2023-05-02T23:35:28.008Z,102106.38
2023-05-02T23:37:54.427Z,102101.81
2023-05-02T23:40:20.849Z,102108.66
2023-05-02T23:42:47.549Z,102106.38
2023-05-02T23:45:13.925Z,102111.97
2023-05-02T23:47:40.429Z,102109.03
2023-05-02T23:50:07.669Z,102114.53
2023-05-02T23:52:34.058Z,102114.88
2023-05-02T23:55:00.465Z,102116.78
2023-05-02T23:57:29.489Z,102113.53
2023-05-02T23:59:55.965Z,102109.41
